createdAt,value
2022-11-05T00:02:13.384Z,98140.25
2022-11-05T00:04:59.054Z,98138.66
2022-11-05T00:07:49.473Z,98139.59
2022-11-05T00:10:21.084Z,98144.47
2022-11-05T00:13:10.671Z,98146.69
2022-11-05T00:15:56.860Z,98141.06
2022-11-05T00:18:25.448Z,98149.91
2022-11-05T00:20:53.673Z,98141.13
2022-11-05T00:23:39.383Z,98157.31
2022-11-05T00:26:12.292Z,98148.63
2022-11-05T00:28:43.842Z,98145.41
2022-11-05T00:31:14.656Z,98158.13
2022-11-05T00:33:44.420Z,98160.53
2022-11-05T00:36:12.755Z,98166.31
2022-11-05T00:38:40.958Z,98154.25
2022-11-05T00:41:09.223Z,98163.22
2022-11-05T00:43:54.854Z,98163.09
2022-11-05T00:46:24.447Z,98161.50
2022-11-05T00:49:10.335Z,98164.34
2022-11-05T00:51:38.591Z,98166.06
2022-11-05T00:54:06.941Z,98163.97
2022-11-05T00:56:35.278Z,98172.78
2022-11-05T00:59:03.554Z,98175.94
2022-11-05T01:01:35.347Z,98168.91
2022-11-05T01:04:03.658Z,98173.09
2022-11-05T01:06:31.876Z,98176.78
2022-11-05T01:09:00.116Z,98176.75
2022-11-05T01:11:37.407Z,98181.47
2022-11-05T01:14:08.620Z,98181.03
2022-11-05T01:16:39.312Z,98184.03
2022-11-05T01:19:10.118Z,98184.84
2022-11-05T01:21:38.562Z,98184.94
2022-11-05T01:24:07.580Z,98195.84
2022-11-05T01:26:36.190Z,98194.59
2022-11-05T01:29:04.444Z,98190.00
2022-11-05T01:31:32.803Z,98200.78
2022-11-05T01:34:02.642Z,98202.94
2022-11-05T01:36:30.887Z,98199.22
2022-11-05T01:38:59.075Z,98205.53
2022-11-05T01:41:29.992Z,98204.94
2022-11-05T01:44:00.170Z,98202.50
2022-11-05T01:46:33.927Z,98208.06
2022-11-05T01:49:11.683Z,98208.25
2022-11-05T01:51:41.011Z,98213.47
2022-11-05T01:54:14.186Z,98209.47
2022-11-05T01:56:47.671Z,98218.56
2022-11-05T01:59:19.770Z,98215.09
2022-11-05T02:01:48.242Z,98224.28
2022-11-05T02:04:27.187Z,98215.66
2022-11-05T02:06:57.821Z,98220.50
2022-11-05T02:09:30.515Z,98216.97
2022-11-05T02:11:59.663Z,98228.97
2022-11-05T02:14:27.910Z,98231.78
2022-11-05T02:17:01.868Z,98215.75
2022-11-05T02:20:09.829Z,98226.72
2022-11-05T02:23:04.319Z,98217.06
2022-11-05T02:26:04.683Z,98229.97
2022-11-05T02:28:54.201Z,98230.09
2022-11-05T02:31:28.779Z,98241.25
2022-11-05T02:34:05.736Z,98233.34
2022-11-05T02:36:43.606Z,98238.81
2022-11-05T02:39:25.692Z,98245.72
2022-11-05T02:42:05.209Z,98232.16
2022-11-05T02:44:42.446Z,98241.94
2022-11-05T02:47:22.975Z,98232.69
2022-11-05T02:49:58.457Z,98230.53
2022-11-05T02:52:37.484Z,98236.72
2022-11-05T02:55:16.177Z,98230.66
2022-11-05T02:57:45.730Z,98231.53
2022-11-05T03:00:41.716Z,98232.78
2022-11-05T03:03:18.054Z,98234.72
2022-11-05T03:05:57.186Z,98246.50
2022-11-05T03:08:37.666Z,98247.00
2022-11-05T03:11:09.791Z,98244.03
2022-11-05T03:13:42.953Z,98255.00
2022-11-05T03:16:16.859Z,98254.19
2022-11-05T03:18:48.809Z,98256.00
2022-11-05T03:21:21.061Z,98251.56
2022-11-05T03:23:52.854Z,98259.91
2022-11-05T03:26:23.422Z,98262.88
2022-11-05T03:28:55.196Z,98257.66
2022-11-05T03:31:24.117Z,98273.78
2022-11-05T03:33:55.856Z,98268.34
2022-11-05T03:36:27.588Z,98280.56
2022-11-05T03:38:57.888Z,98276.38
2022-11-05T03:41:26.295Z,98282.16
2022-11-05T03:43:57.128Z,98289.03
2022-11-05T03:46:27.454Z,98290.97
2022-11-05T03:48:58.935Z,98298.31
2022-11-05T03:51:31.342Z,98300.09
2022-11-05T03:54:00.990Z,98300.09
2022-11-05T03:56:31.762Z,98304.53
2022-11-05T03:59:00.709Z,98311.28
2022-11-05T04:01:29.385Z,98309.25
2022-11-05T04:03:58.839Z,98322.88
2022-11-05T04:06:44.328Z,98324.69
2022-11-05T04:09:29.579Z,98326.94
2022-11-05T04:12:15.370Z,98330.22
2022-11-05T04:14:43.421Z,98327.59
2022-11-05T04:17:11.553Z,98335.66
2022-11-05T04:19:59.007Z,98343.25
2022-11-05T04:22:45.344Z,98343.66
2022-11-05T04:25:13.431Z,98344.84
2022-11-05T04:27:44.208Z,98336.06
2022-11-05T04:30:20.701Z,98343.59
2022-11-05T04:32:59.369Z,98346.28
2022-11-05T04:35:29.200Z,98350.91
2022-11-05T04:37:58.225Z,98343.25
2022-11-05T04:40:28.626Z,98345.06
2022-11-05T04:42:57.170Z,98354.38
2022-11-05T04:45:25.843Z,98346.44
2022-11-05T04:47:53.901Z,98347.59
2022-11-05T04:50:21.903Z,98348.81
2022-11-05T04:52:53.669Z,98352.16
2022-11-05T04:55:21.881Z,98352.84
2022-11-05T04:57:52.979Z,98356.91
2022-11-05T05:00:24.236Z,98359.31
2022-11-05T05:02:52.231Z,98362.75
2022-11-05T05:05:21.219Z,98365.31
2022-11-05T05:07:49.173Z,98362.25
2022-11-05T05:10:18.578Z,98361.25
2022-11-05T05:12:46.678Z,98365.13
2022-11-05T05:15:14.731Z,98366.19
2022-11-05T05:17:42.673Z,98371.53
2022-11-05T05:20:39.623Z,98376.47
2022-11-05T05:23:07.658Z,98381.09
2022-11-05T05:25:37.092Z,98381.38
2022-11-05T05:28:05.132Z,98377.34
2022-11-05T05:30:33.128Z,98377.25
2022-11-05T05:33:02.528Z,98380.09
2022-11-05T05:35:30.546Z,98374.91
2022-11-05T05:37:58.501Z,98385.25
2022-11-05T05:40:27.009Z,98385.66
2022-11-05T05:42:56.682Z,98389.66
2022-11-05T05:45:24.651Z,98388.22
2022-11-05T05:47:52.771Z,98400.22
2022-11-05T05:50:20.725Z,98393.19
2022-11-05T05:52:53.161Z,98396.06
2022-11-05T05:55:21.234Z,98396.09
2022-11-05T05:57:49.301Z,98399.59
2022-11-05T06:00:18.832Z,98409.91
2022-11-05T06:02:46.889Z,98411.44
2022-11-05T06:05:15.106Z,98406.22
2022-11-05T06:07:43.098Z,98412.50
2022-11-05T06:10:11.203Z,98422.00
2022-11-05T06:12:39.266Z,98424.22
2022-11-05T06:15:07.610Z,98439.78
2022-11-05T06:17:36.945Z,98444.56
2022-11-05T06:20:05.331Z,98444.78
2022-11-05T06:22:33.387Z,98438.69
2022-11-05T06:25:01.435Z,98450.06
2022-11-05T06:27:29.517Z,98446.50
2022-11-05T06:29:57.569Z,98463.09
2022-11-05T06:32:25.672Z,98462.06
2022-11-05T06:34:54.994Z,98475.44
2022-11-05T06:37:23.003Z,98474.44
2022-11-05T06:39:51.123Z,98474.28
2022-11-05T06:42:19.597Z,98480.09
2022-11-05T06:44:47.977Z,98484.56
2022-11-05T06:47:15.944Z,98485.22
2022-11-05T06:49:44.114Z,98484.34
2022-11-05T06:52:14.094Z,98488.06
2022-11-05T06:54:42.780Z,98504.75
2022-11-05T06:57:11.416Z,98499.78
2022-11-05T06:59:39.489Z,98508.28
2022-11-05T07:02:07.985Z,98512.13
2022-11-05T07:04:36.253Z,98515.66
2022-11-05T07:07:04.454Z,98514.44
2022-11-05T07:09:33.892Z,98516.59
2022-11-05T07:12:02.020Z,98529.88
2022-11-05T07:14:30.022Z,98527.81
2022-11-05T07:16:58.266Z,98537.81
2022-11-05T07:19:26.280Z,98534.31
2022-11-05T07:21:54.304Z,98544.38
2022-11-05T07:24:22.311Z,98540.94
2022-11-05T07:26:51.758Z,98548.53
2022-11-05T07:29:19.784Z,98561.78
2022-11-05T07:31:48.034Z,98574.66
2022-11-05T07:34:16.156Z,98583.53
2022-11-05T07:36:44.200Z,98593.19
2022-11-05T07:39:12.494Z,98593.75
2022-11-05T07:41:40.516Z,98596.88
2022-11-05T07:44:09.936Z,98600.63
2022-11-05T07:46:38.003Z,98608.53
2022-11-05T07:49:06.196Z,98610.19
2022-11-05T07:51:34.228Z,98613.72
2022-11-05T07:54:04.526Z,98627.78
2022-11-05T07:56:32.639Z,98632.13
2022-11-05T07:59:00.698Z,98637.53
2022-11-05T08:01:30.420Z,98636.69
2022-11-05T08:04:01.286Z,98638.13
2022-11-05T08:06:29.405Z,98649.31
2022-11-05T08:08:57.518Z,98651.59
2022-11-05T08:11:25.633Z,98654.50
2022-11-05T08:13:53.669Z,98655.34
2022-11-05T08:16:21.823Z,98655.75
2022-11-05T08:18:51.212Z,98656.97
2022-11-05T08:21:19.196Z,98659.47
2022-11-05T08:23:47.169Z,98665.66
2022-11-05T08:26:15.321Z,98661.34
2022-11-05T08:28:43.322Z,98672.53
2022-11-05T08:31:11.449Z,98669.63
2022-11-05T08:33:39.530Z,98672.50
2022-11-05T08:36:09.189Z,98677.28
2022-11-05T08:38:37.266Z,98673.56
2022-11-05T08:41:05.380Z,98678.94
2022-11-05T08:43:33.374Z,98678.72
2022-11-05T08:46:02.005Z,98683.06
2022-11-05T08:48:30.076Z,98686.81
2022-11-05T08:51:00.905Z,98684.09
2022-11-05T08:53:30.269Z,98678.31
2022-11-05T08:56:01.326Z,98670.41
2022-11-05T08:58:29.374Z,98675.16
2022-11-05T09:01:03.500Z,98671.00
2022-11-05T09:03:32.917Z,98674.41
2022-11-05T09:06:00.996Z,98668.72
2022-11-05T09:08:30.446Z,98671.94
2022-11-05T09:10:58.458Z,98668.25
2022-11-05T09:13:28.762Z,98670.03
2022-11-05T09:15:58.828Z,98672.94
2022-11-05T09:18:26.907Z,98672.88
2022-11-05T09:20:55.017Z,98674.06
2022-11-05T09:23:22.987Z,98676.66
2022-11-05T09:25:52.365Z,98681.13
2022-11-05T09:28:22.038Z,98681.94
2022-11-05T09:30:50.942Z,98675.09
2022-11-05T09:33:19.710Z,98671.78
2022-11-05T09:35:47.718Z,98671.59
2022-11-05T09:38:15.825Z,98667.69
2022-11-05T09:40:45.677Z,98674.47
2022-11-05T09:43:18.085Z,98681.72
2022-11-05T09:45:48.206Z,98685.25
2022-11-05T09:48:17.859Z,98695.47
2022-11-05T09:50:47.041Z,98692.66
2022-11-05T09:53:16.113Z,98700.81
2022-11-05T09:55:44.916Z,98691.81
2022-11-05T09:58:18.470Z,98698.22
2022-11-05T10:00:48.762Z,98694.44
2022-11-05T10:03:20.019Z,98702.16
2022-11-05T10:05:49.373Z,98702.78
2022-11-05T10:08:21.099Z,98704.81
2022-11-05T10:10:50.820Z,98708.81
2022-11-05T10:13:23.235Z,98709.38
2022-11-05T10:15:55.066Z,98702.44
2022-11-05T10:18:26.957Z,98708.94
2022-11-05T10:20:55.157Z,98709.38
2022-11-05T10:23:23.436Z,98712.59
2022-11-05T10:25:55.767Z,98722.34
2022-11-05T10:28:26.539Z,98721.72
2022-11-05T10:30:58.072Z,98723.81
2022-11-05T10:33:30.063Z,98725.09
2022-11-05T10:36:02.780Z,98728.13
2022-11-05T10:38:30.913Z,98727.09
2022-11-05T10:41:06.163Z,98725.00
2022-11-05T10:43:40.761Z,98726.25
2022-11-05T10:46:15.021Z,98734.56
2022-11-05T10:48:50.491Z,98721.38
2022-11-05T10:51:19.229Z,98731.88
2022-11-05T10:53:50.875Z,98728.34
2022-11-05T10:56:34.525Z,98719.50
2022-11-05T10:59:09.346Z,98725.09
2022-11-05T11:01:40.202Z,98717.41
2022-11-05T11:04:16.438Z,98724.31
2022-11-05T11:06:49.603Z,98721.28
2022-11-05T11:09:22.841Z,98721.75
2022-11-05T11:11:56.414Z,98727.09
2022-11-05T11:14:25.885Z,98723.16
2022-11-05T11:16:57.257Z,98724.59
2022-11-05T11:19:27.249Z,98721.16
2022-11-05T11:22:14.067Z,98716.56
2022-11-05T11:24:43.341Z,98718.91
2022-11-05T11:27:13.593Z,98715.16
2022-11-05T11:29:49.097Z,98718.69
2022-11-05T11:32:20.401Z,98727.22
2022-11-05T11:34:52.091Z,98725.69
2022-11-05T11:37:26.739Z,98719.63
2022-11-05T11:39:58.001Z,98724.66
2022-11-05T11:42:31.132Z,98719.72
2022-11-05T11:45:05.857Z,98718.78
2022-11-05T11:47:34.661Z,98712.31
2022-11-05T11:50:03.613Z,98718.00
2022-11-05T11:52:33.908Z,98711.88
2022-11-05T11:55:20.002Z,98712.22
2022-11-05T11:57:50.671Z,98720.25
2022-11-05T12:00:25.861Z,98712.25
2022-11-05T12:03:09.269Z,98727.75
2022-11-05T12:05:44.206Z,98725.22
2022-11-05T12:08:28.725Z,98714.91
2022-11-05T12:11:04.100Z,98711.84
2022-11-05T12:13:49.655Z,98714.97
2022-11-05T12:16:27.483Z,98706.03
2022-11-05T12:19:07.592Z,98707.53
2022-11-05T12:21:59.213Z,98694.28
2022-11-05T12:24:53.027Z,98694.06
2022-11-05T12:27:35.146Z,98697.34
2022-11-05T12:30:09.203Z,98696.97
2022-11-05T12:33:12.355Z,98702.00
2022-11-05T12:35:57.580Z,98700.81
2022-11-05T12:38:41.770Z,98704.31
2022-11-05T12:41:20.208Z,98698.84
2022-11-05T12:44:05.472Z,98692.28
2022-11-05T12:46:43.293Z,98698.63
2022-11-05T12:49:34.643Z,98695.88
2022-11-05T12:52:17.726Z,98701.16
2022-11-05T12:54:59.449Z,98708.22
2022-11-05T12:57:30.983Z,98697.31
2022-11-05T13:00:03.244Z,98702.94
2022-11-05T13:02:34.983Z,98702.34
2022-11-05T13:05:06.255Z,98703.66
2022-11-05T13:07:35.233Z,98702.13
2022-11-05T13:10:06.800Z,98701.84
2022-11-05T13:12:39.996Z,98707.56
2022-11-05T13:15:16.268Z,98712.34
2022-11-05T13:17:51.158Z,98712.03
2022-11-05T13:20:22.568Z,98711.75
2022-11-05T13:22:53.635Z,98714.44
2022-11-05T13:25:23.149Z,98714.59
2022-11-05T13:27:58.566Z,98721.16
2022-11-05T13:30:29.189Z,98723.63
2022-11-05T13:33:01.247Z,98725.09
2022-11-05T13:35:37.993Z,98732.47
2022-11-05T13:38:28.378Z,98734.72
2022-11-05T13:41:15.566Z,98738.94
2022-11-05T13:43:58.872Z,98737.94
2022-11-05T13:46:40.337Z,98736.50
2022-11-05T13:49:40.776Z,98742.41
2022-11-05T13:52:50.201Z,98738.22
2022-11-05T13:55:46.703Z,98737.69
2022-11-05T13:58:38.443Z,98732.88
2022-11-05T14:01:17.948Z,98736.16
2022-11-05T14:03:49.498Z,98739.66
2022-11-05T14:06:26.453Z,98735.25
2022-11-05T14:08:58.965Z,98731.34
2022-11-05T14:11:32.178Z,98737.53
2022-11-05T14:14:03.861Z,98733.00
2022-11-05T14:16:48.725Z,98722.00
2022-11-05T14:19:34.291Z,98739.13
2022-11-05T14:22:36.867Z,98731.88
2022-11-05T14:25:38.537Z,98742.31
2022-11-05T14:28:39.701Z,98741.81
2022-11-05T14:31:41.170Z,98738.53
2022-11-05T14:34:43.420Z,98738.25
2022-11-05T14:37:23.391Z,98739.41
2022-11-05T14:39:55.502Z,98735.06
2022-11-05T14:42:27.651Z,98735.84
2022-11-05T14:45:04.392Z,98739.00
2022-11-05T14:47:38.664Z,98741.47
2022-11-05T14:50:19.073Z,98750.22
2022-11-05T14:52:53.282Z,98743.88
2022-11-05T14:55:28.580Z,98732.28
2022-11-05T14:58:29.580Z,98748.63
2022-11-05T15:01:00.281Z,98752.06
2022-11-05T15:03:48.744Z,98751.16
2022-11-05T15:06:23.619Z,98761.69
2022-11-05T15:09:21.181Z,98769.00
2022-11-05T15:12:04.518Z,98764.91
2022-11-05T15:14:36.051Z,98767.91
2022-11-05T15:17:18.225Z,98770.66
2022-11-05T15:19:47.896Z,98777.81
2022-11-05T15:22:28.011Z,98766.75
2022-11-05T15:24:56.677Z,98769.03
2022-11-05T15:27:48.252Z,98770.56
2022-11-05T15:30:18.832Z,98765.16
2022-11-05T15:32:48.698Z,98771.44
2022-11-05T15:35:28.179Z,98774.50
2022-11-05T15:38:02.068Z,98772.44
2022-11-05T15:40:33.320Z,98771.72
2022-11-05T15:43:20.632Z,98772.22
2022-11-05T15:46:07.445Z,98765.78
2022-11-05T15:48:37.361Z,98763.16
2022-11-05T15:51:06.216Z,98769.25
2022-11-05T15:54:02.273Z,98765.78
2022-11-05T15:56:30.509Z,98773.94
2022-11-05T15:59:02.111Z,98769.47
2022-11-05T16:01:32.582Z,98774.56
2022-11-05T16:04:09.755Z,98775.00
2022-11-05T16:06:41.471Z,98780.03
2022-11-05T16:09:22.103Z,98768.22
2022-11-05T16:11:54.550Z,98757.19
2022-11-05T16:14:22.925Z,98772.50
2022-11-05T16:16:51.292Z,98783.31
2022-11-05T16:19:40.154Z,98780.44
2022-11-05T16:22:09.219Z,98786.41
2022-11-05T16:24:37.533Z,98792.56
2022-11-05T16:27:06.728Z,98781.63
2022-11-05T16:29:37.784Z,98797.31
2022-11-05T16:32:15.525Z,98802.72
2022-11-05T16:34:48.950Z,98797.28
2022-11-05T16:37:20.277Z,98801.56
2022-11-05T16:39:48.756Z,98808.84
2022-11-05T16:42:37.432Z,98807.56
2022-11-05T16:45:07.184Z,98801.34
2022-11-05T16:47:35.465Z,98811.28
2022-11-05T16:50:14.505Z,98807.28
2022-11-05T16:52:43.132Z,98807.69
2022-11-05T16:55:12.089Z,98807.69
2022-11-05T16:57:40.846Z,98819.56
2022-11-05T17:00:14.356Z,98824.59
2022-11-05T17:02:42.807Z,98823.66
2022-11-05T17:05:26.459Z,98819.19
2022-11-05T17:07:57.331Z,98824.09
2022-11-05T17:10:27.024Z,98819.63
2022-11-05T17:12:55.595Z,98831.25
2022-11-05T17:15:26.501Z,98831.59
2022-11-05T17:17:56.281Z,98815.63
2022-11-05T17:20:39.779Z,98839.66
2022-11-05T17:23:10.972Z,98844.22
2022-11-05T17:25:40.267Z,98840.47
2022-11-05T17:28:10.066Z,98856.56
2022-11-05T17:30:41.449Z,98868.66
2022-11-05T17:33:11.861Z,98866.78
2022-11-05T17:35:42.953Z,98865.69
2022-11-05T17:38:12.605Z,98863.94
2022-11-05T17:40:41.701Z,98863.56
2022-11-05T17:43:10.539Z,98863.53
2022-11-05T17:45:43.784Z,98861.19
2022-11-05T17:48:12.192Z,98864.22
2022-11-05T17:50:42.870Z,98870.56
2022-11-05T17:53:12.506Z,98877.31
2022-11-05T17:55:42.405Z,98871.84
2022-11-05T17:58:11.197Z,98881.34
2022-11-05T18:00:40.624Z,98896.63
2022-11-05T18:03:10.790Z,98898.06
2022-11-05T18:05:40.107Z,98894.72
2022-11-05T18:08:11.112Z,98899.78
2022-11-05T18:10:40.831Z,98895.94
2022-11-05T18:13:09.436Z,98891.16
2022-11-05T18:15:40.903Z,98897.09
2022-11-05T18:18:09.483Z,98897.75
2022-11-05T18:20:38.669Z,98894.72
2022-11-05T18:23:07.112Z,98897.81
2022-11-05T18:25:37.339Z,98905.00
2022-11-05T18:28:05.750Z,98906.38
2022-11-05T18:30:34.883Z,98913.63
2022-11-05T18:33:03.218Z,98924.06
2022-11-05T18:35:31.567Z,98927.03
2022-11-05T18:37:59.869Z,98929.16
2022-11-05T18:40:28.238Z,98922.53
2022-11-05T18:42:57.895Z,98914.81
2022-11-05T18:45:29.771Z,98918.59
2022-11-05T18:48:01.261Z,98922.31
2022-11-05T18:50:30.165Z,98919.81
2022-11-05T18:53:01.853Z,98916.50
2022-11-05T18:55:39.789Z,98912.16
2022-11-05T18:58:09.845Z,98915.56
2022-11-05T19:00:40.626Z,98913.16
2022-11-05T19:03:09.527Z,98911.41
2022-11-05T19:05:43.762Z,98919.72
2022-11-05T19:08:12.220Z,98918.50
2022-11-05T19:10:42.696Z,98912.78
2022-11-05T19:13:12.451Z,98906.88
2022-11-05T19:15:42.788Z,98900.75
2022-11-05T19:18:11.438Z,98910.56
2022-11-05T19:20:40.102Z,98915.38
2022-11-05T19:23:08.507Z,98927.72
2022-11-05T19:25:38.216Z,98922.00
2022-11-05T19:28:06.599Z,98924.56
2022-11-05T19:30:39.481Z,98926.88
2022-11-05T19:33:08.055Z,98924.53
2022-11-05T19:35:41.467Z,98899.22
2022-11-05T19:38:10.368Z,98926.63
2022-11-05T19:40:39.116Z,98934.19
2022-11-05T19:43:10.454Z,98928.59
2022-11-05T19:45:45.288Z,98930.13
2022-11-05T19:48:19.152Z,98925.97
2022-11-05T19:50:48.249Z,98927.03
2022-11-05T19:53:16.674Z,98921.16
2022-11-05T19:55:45.544Z,98921.16
2022-11-05T19:58:14.351Z,98912.28
2022-11-05T20:00:44.271Z,98924.69
2022-11-05T20:03:18.653Z,98928.81
2022-11-05T20:05:50.035Z,98936.41
2022-11-05T20:08:18.464Z,98935.84
2022-11-05T20:10:47.217Z,98934.72
2022-11-05T20:13:19.818Z,98947.28
2022-11-05T20:15:49.783Z,98948.16
2022-11-05T20:18:18.749Z,98938.88
2022-11-05T20:20:48.140Z,98954.31
2022-11-05T20:23:16.814Z,98956.28
2022-11-05T20:25:45.175Z,98958.25
2022-11-05T20:28:14.255Z,98957.88
2022-11-05T20:30:46.176Z,98948.44
2022-11-05T20:33:18.376Z,98957.84
2022-11-05T20:35:49.629Z,98946.63
2022-11-05T20:38:18.116Z,98951.28
2022-11-05T20:40:46.432Z,98951.69
2022-11-05T20:43:14.806Z,98950.03
2022-11-05T20:45:43.090Z,98952.78
2022-11-05T20:48:11.945Z,98958.00
2022-11-05T20:50:42.832Z,98952.47
2022-11-05T20:53:13.227Z,98948.00
2022-11-05T20:55:43.231Z,98953.84
2022-11-05T20:58:12.257Z,98956.13
2022-11-05T21:00:41.274Z,98951.28
2022-11-05T21:03:09.674Z,98948.75
2022-11-05T21:05:37.993Z,98951.69
2022-11-05T21:08:08.058Z,98952.06
2022-11-05T21:10:36.424Z,98949.16
2022-11-05T21:13:04.713Z,98951.59
2022-11-05T21:15:33.078Z,98955.03
2022-11-05T21:18:01.651Z,98948.00
2022-11-05T21:20:29.954Z,98957.28
2022-11-05T21:22:58.588Z,98954.72
2022-11-05T21:25:28.474Z,98957.88
2022-11-05T21:27:58.163Z,98944.91
2022-11-05T21:30:26.494Z,98953.09
2022-11-05T21:32:54.761Z,98950.16
2022-11-05T21:35:29.319Z,98950.66
2022-11-05T21:37:57.915Z,98952.88
2022-11-05T21:40:26.519Z,98953.31
2022-11-05T21:42:58.673Z,98951.63
2022-11-05T21:45:27.208Z,98953.59
2022-11-05T21:47:55.501Z,98955.03
2022-11-05T21:50:44.181Z,98954.91
2022-11-05T21:53:31.968Z,98955.50
2022-11-05T21:56:18.413Z,98952.41
2022-11-05T22:02:36.936Z,98953.25
2022-11-05T22:05:05.789Z,98950.25
2022-11-05T22:07:34.853Z,98945.47
2022-11-05T22:10:03.303Z,98948.91
2022-11-05T22:12:32.020Z,98939.88
2022-11-05T22:15:00.126Z,98941.38
2022-11-05T22:17:28.219Z,98948.03
2022-11-05T22:19:57.639Z,98946.34
2022-11-05T22:22:25.659Z,98945.81
2022-11-05T22:24:53.670Z,98949.97
2022-11-05T22:27:22.582Z,98942.22
2022-11-05T22:29:50.906Z,98944.06
2022-11-05T22:32:18.954Z,98944.44
2022-11-05T22:34:48.671Z,98944.63
2022-11-05T22:37:18.363Z,98933.63
2022-11-05T22:39:46.404Z,98933.78
2022-11-05T22:42:14.539Z,98926.09
2022-11-05T22:44:44.903Z,98937.72
2022-11-05T22:47:14.003Z,98934.88
2022-11-05T22:49:42.017Z,98927.38
2022-11-05T22:52:10.157Z,98932.91
2022-11-05T22:54:39.690Z,98929.09
2022-11-05T22:57:08.568Z,98939.72
2022-11-05T22:59:36.697Z,98930.78
2022-11-05T23:02:09.449Z,98934.97
2022-11-05T23:04:38.412Z,98926.34
2022-11-05T23:07:27.626Z,98924.84
2022-11-05T23:10:14.880Z,98924.69
2022-11-05T23:12:44.371Z,98927.34
2022-11-05T23:15:33.245Z,98925.66
2022-11-05T23:18:18.839Z,98919.00
2022-11-05T23:21:04.403Z,98921.69
2022-11-05T23:23:46.372Z,98917.31
2022-11-05T23:26:33.089Z,98913.41
2022-11-05T23:29:01.280Z,98912.53
2022-11-05T23:31:46.648Z,98916.22
2022-11-05T23:34:14.660Z,98913.88
2022-11-05T23:37:00.127Z,98912.72
2022-11-05T23:39:28.142Z,98906.06
2022-11-05T23:42:15.100Z,98906.44
2022-11-05T23:45:00.837Z,98918.50
2022-11-05T23:47:46.397Z,98905.00
2022-11-05T23:50:14.594Z,98894.78
2022-11-05T23:52:42.608Z,98885.69
2022-11-05T23:55:10.794Z,98882.75
2022-11-05T23:57:40.774Z,98877.81
